الصفحة الرئيسية
METAR-TAF:

METAR-TAF

مطار :

Clines Corners, نيومكسيكو, الولايات المتحدة

دائرة عرض: 35-00N, خط طول: 105-40W, ارتفاع: 2160 متر

مراقبة الطقس الحالي

تاريخ ووقت الإصدار 56 دقيقة قبل الساعة 21:53UTC
ريح 21 عقدة من الغرب/الشمال الغربي تتزايد حتى 33 عقدة
درجة الحرارة 12°درجة مئوية
الرطوبة 28%
ضغط 1018 hPa
الرؤية: 16.1 كم
سماء صافية

METAR: KCQC 232153Z AUTO 30021G33KT 10SM CLR 12/M06 A3005 RMK AO2 PK WND 29034/2107 SLP137 T01221056

زمن: 16:49 (22:49 UTC)


TAF: مفقودة

أرصاد الطقس والتوقعات من أكثر من 4000 مطار (تقارير الطقس للمطار METAR والتنبؤ بالطقس بالمطارTAF).

المحطات المتاحة هي النقط الصفراء والحمراء على الخريطة.

حرك المؤشر فوق النقطة لمعرفة اسم المحطة.

ثم انقر لمعرفة أرصاد وتوقعات الطقس.

لتغيير الخارطة: اضغط على الأزرار الخضراء مع رمز الصليب الأسود للتكبير. على الزر الأخضر مع شرطة للتصغير، أو على الأسهم الخضراء للخرائط المجاورة.


METAR-TAF: